Time;durP1;ratioP1;P1;durP2;ratioP2;P2;SDS_P1;SDS_P2;PMS_P1;PMS_P2;Temp;Humidity;BMP_temperature;BMP_pressure;BME280_temperature;BME280_humidity;BME280_pressure;Samples;Min_cycle;Max_cycle;Signal;HPM_P1;HPM_P2
2023/01/18 00:04:49;;;;;;;52.33;29.73;;;0.50;99.90;;;;;;10407991;28;20288;-81
2023/01/18 00:09:52;;;;;;;45.33;26.93;;;0.30;99.90;;;;;;10410991;28;20618;-81
2023/01/18 00:14:55;;;;;;;43.23;28.13;;;0.40;99.90;;;;;;10409561;28;20255;-81
2023/01/18 00:19:57;;;;;;;44.87;25.37;;;0.40;99.90;;;;;;10410267;28;20261;-81
2023/01/18 00:25:00;;;;;;;43.53;25.90;;;0.20;99.90;;;;;;10410390;28;20325;-81
2023/01/18 00:30:06;;;;;;;55.07;31.10;;;-0.10;99.90;;;;;;10406918;28;20703;-81
2023/01/18 00:35:09;;;;;;;48.37;28.13;;;-0.10;99.90;;;;;;10368794;28;20264;-81
2023/01/18 00:40:12;;;;;;;43.77;26.77;;;0.20;99.90;;;;;;10367077;28;20781;-81
2023/01/18 00:45:15;;;;;;;57.33;32.80;;;0.30;99.90;;;;;;10374943;28;20239;-81
2023/01/18 00:50:21;;;;;;;59.97;32.43;;;1.40;99.90;;;;;;10409115;28;20309;-81
2023/01/18 00:55:25;;;;;;;55.10;29.93;;;1.40;99.90;;;;;;10408934;28;20251;-81
2023/01/18 01:00:27;;;;;;;50.43;29.27;;;0.60;99.90;;;;;;10408913;28;20671;-81
2023/01/18 01:10:52;;;;;;;45.60;28.13;;;0.40;99.90;;;;;;10406625;28;20841;-81
2023/01/18 01:26:37;;;;;;;45.20;27.60;;;0.30;99.90;;;;;;10390699;28;20246;-81
2023/01/18 01:31:40;;;;;;;42.03;25.20;;;0.30;99.90;;;;;;10404492;28;20266;-81
2023/01/18 01:36:42;;;;;;;41.03;22.30;;;0.10;99.90;;;;;;10405823;28;20620;-81
2023/01/18 01:41:45;;;;;;;40.63;26.53;;;0.40;99.90;;;;;;10407645;28;20254;-81
2023/01/18 01:46:57;;;;;;;40.13;24.17;;;0.60;99.90;;;;;;10405123;28;20234;-81
2023/01/18 01:52:09;;;;;;;36.10;22.77;;;1.10;99.90;;;;;;10407904;28;20269;-81
2023/01/18 01:57:32;;;;;;;37.97;22.90;;;1.70;99.90;;;;;;10405429;28;20700;-81
2023/01/18 02:02:36;;;;;;;63.37;34.20;;;1.80;99.90;;;;;;10406522;28;20300;-81
2023/01/18 02:07:39;;;;;;;67.13;36.87;;;1.60;99.90;;;;;;10380216;28;20235;-81
2023/01/18 02:12:45;;;;;;;55.13;31.47;;;1.40;99.90;;;;;;10388794;28;20289;-81
2023/01/18 02:18:00;;;;;;;53.27;30.17;;;1.10;99.90;;;;;;10406138;28;20264;-81
2023/01/18 02:23:06;;;;;;;36.27;21.53;;;0.90;99.90;;;;;;10406563;28;20309;-81
2023/01/18 02:28:34;;;;;;;41.70;23.97;;;1.10;99.90;;;;;;10388001;28;20654;-81
2023/01/18 02:33:45;;;;;;;25.87;15.93;;;1.30;99.90;;;;;;10405569;28;20889;-81
2023/01/18 02:38:53;;;;;;;29.47;17.20;;;1.10;99.90;;;;;;10365274;28;20310;-81
2023/01/18 02:49:22;;;;;;;30.73;17.43;;;1.30;99.90;;;;;;10409150;28;20283;-81
2023/01/18 02:54:24;;;;;;;34.60;18.60;;;1.30;99.90;;;;;;10413343;28;20255;-81
2023/01/18 02:59:40;;;;;;;34.53;20.87;;;1.20;99.90;;;;;;10411159;28;20734;-81
2023/01/18 03:04:53;;;;;;;31.23;19.37;;;1.20;99.90;;;;;;10395207;28;20265;-81
2023/01/18 03:09:58;;;;;;;33.30;19.17;;;1.00;99.90;;;;;;10412055;28;20297;-81
2023/01/18 03:15:27;;;;;;;30.93;18.53;;;1.10;99.90;;;;;;10411840;28;20309;-81
2023/01/18 03:20:34;;;;;;;27.07;17.57;;;2.80;99.90;;;;;;10386457;28;20239;-81
2023/01/18 03:25:49;;;;;;;27.03;17.20;;;3.40;99.90;;;;;;10412905;28;20272;-81
2023/01/18 03:36:30;;;;;;;39.77;22.47;;;4.10;99.90;;;;;;10412450;28;20297;-81
2023/01/18 03:41:38;;;;;;;27.43;17.53;;;2.90;99.90;;;;;;10392519;28;20238;-81
2023/01/18 03:46:42;;;;;;;35.03;20.47;;;2.50;99.90;;;;;;10411521;28;20286;-81
2023/01/18 03:52:14;;;;;;;31.70;19.40;;;2.80;99.90;;;;;;10410738;28;20231;-81
2023/01/18 03:57:39;;;;;;;35.27;20.87;;;2.10;99.90;;;;;;10392098;28;20232;-81
2023/01/18 04:02:43;;;;;;;33.47;20.50;;;1.40;99.90;;;;;;10410447;28;20242;-81
2023/01/18 04:07:46;;;;;;;32.70;18.77;;;1.30;99.90;;;;;;10409799;28;20239;-81
2023/01/18 04:12:48;;;;;;;36.93;19.33;;;1.30;99.90;;;;;;10410070;28;20736;-81
2023/01/18 04:17:54;;;;;;;34.97;20.40;;;1.30;99.90;;;;;;10410742;28;20235;-81
2023/01/18 04:22:57;;;;;;;35.37;21.47;;;1.10;99.90;;;;;;10410236;28;20247;-81
2023/01/18 04:28:00;;;;;;;31.27;19.13;;;1.10;99.90;;;;;;10390865;28;20236;-81
2023/01/18 04:33:02;;;;;;;33.83;18.87;;;1.00;99.90;;;;;;10410264;28;20321;-81
2023/01/18 04:38:05;;;;;;;27.13;16.83;;;1.10;99.90;;;;;;10408049;28;20673;-81
2023/01/18 04:43:07;;;;;;;30.57;16.90;;;2.50;99.90;;;;;;10392391;28;20900;-81
2023/01/18 04:48:10;;;;;;;23.77;16.97;;;3.60;99.90;;;;;;10389521;28;20602;-80
2023/01/18 04:53:13;;;;;;;40.60;23.23;;;3.00;99.90;;;;;;10408816;28;20254;-80
2023/01/18 04:58:15;;;;;;;33.60;18.40;;;2.00;99.90;;;;;;10407268;28;20239;-81
2023/01/18 05:03:18;;;;;;;27.47;17.90;;;1.80;99.90;;;;;;10394279;28;20231;-81
2023/01/18 05:08:21;;;;;;;28.30;16.47;;;1.80;99.90;;;;;;10409176;28;20235;-81
2023/01/18 05:13:23;;;;;;;28.50;17.63;;;1.90;99.90;;;;;;10406441;28;20254;-81
2023/01/18 05:18:26;;;;;;;30.00;17.97;;;1.80;99.90;;;;;;10408621;28;20257;-81
2023/01/18 05:23:28;;;;;;;27.10;15.57;;;1.80;99.90;;;;;;10389492;28;20285;-81
2023/01/18 05:28:31;;;;;;;25.83;15.57;;;1.90;99.90;;;;;;10391478;28;20243;-81
2023/01/18 05:33:34;;;;;;;27.20;16.93;;;3.60;99.90;;;;;;10389379;28;20339;-81
2023/01/18 05:38:36;;;;;;;30.00;19.27;;;4.20;99.90;;;;;;10406276;28;20250;-81
2023/01/18 05:43:39;;;;;;;27.50;18.10;;;4.70;99.90;;;;;;10406729;28;20399;-81
2023/01/18 05:48:41;;;;;;;30.53;18.73;;;5.10;99.90;;;;;;10405998;28;20281;-81
2023/01/18 05:53:44;;;;;;;20.00;13.10;;;5.50;99.90;;;;;;10389361;28;20321;-81
2023/01/18 05:58:47;;;;;;;24.53;17.20;;;5.60;99.90;;;;;;10407374;28;20235;-81
2023/01/18 06:03:49;;;;;;;33.97;21.27;;;5.70;99.90;;;;;;10399552;28;20236;-81
2023/01/18 06:08:52;;;;;;;29.80;19.00;;;5.20;99.90;;;;;;10400498;28;20296;-80
2023/01/18 06:13:54;;;;;;;22.30;14.33;;;4.70;99.90;;;;;;10403567;28;20285;-80
2023/01/18 06:18:57;;;;;;;29.13;22.33;;;3.50;99.90;;;;;;10399673;28;20257;-80
2023/01/18 06:23:59;;;;;;;34.50;23.37;;;2.80;99.90;;;;;;10394143;28;20284;-80
2023/01/18 06:29:02;;;;;;;40.63;26.07;;;2.30;99.90;;;;;;10415325;28;20245;-80
2023/01/18 06:34:08;;;;;;;25.37;17.30;;;2.00;99.90;;;;;;10395479;28;20324;-80
2023/01/18 06:39:10;;;;;;;31.90;18.83;;;2.20;99.90;;;;;;10414766;28;20238;-80
2023/01/18 06:44:13;;;;;;;18.43;12.10;;;2.50;99.90;;;;;;10395625;28;20308;-79
2023/01/18 06:49:16;;;;;;;21.80;14.83;;;3.60;99.90;;;;;;10390681;28;20254;-80
2023/01/18 06:54:18;;;;;;;28.00;16.30;;;3.80;99.90;;;;;;10409912;28;20350;-79
2023/01/18 06:59:21;;;;;;;10.40;6.37;;;;;;;;;;10383441;28;20291;-88
2023/01/18 07:04:24;;;;;;;25.10;16.50;;;3.30;99.90;;;;;;10412838;28;20300;-88
2023/01/18 07:09:27;;;;;;;31.07;20.97;;;5.80;99.90;;;;;;10413559;28;20674;-88
2023/01/18 07:14:29;;;;;;;29.93;17.27;;;4.80;99.90;;;;;;10411340;28;20313;-87
2023/01/18 07:19:32;;;;;;;29.30;18.83;;;4.30;99.90;;;;;;10406354;28;20239;-88
2023/01/18 07:24:34;;;;;;;27.80;17.90;;;3.90;99.90;;;;;;10396902;28;20240;-88
2023/01/18 07:29:37;;;;;;;27.33;17.23;;;3.90;99.90;;;;;;10399755;28;20742;-88
2023/01/18 07:34:39;;;;;;;28.23;18.10;;;3.40;99.90;;;;;;10406571;28;20270;-88
2023/01/18 07:39:42;;;;;;;24.27;17.50;;;3.20;99.90;;;;;;10407123;28;20235;-88
2023/01/18 07:44:44;;;;;;;27.03;16.10;;;2.90;99.90;;;;;;10408890;28;20235;-88
2023/01/18 07:49:47;;;;;;;25.83;16.33;;;2.80;99.90;;;;;;10402039;28;20692;-88
2023/01/18 07:54:50;;;;;;;30.00;17.40;;;2.80;99.90;;;;;;10392255;28;20259;-88
2023/01/18 07:59:53;;;;;;;28.30;16.53;;;2.80;99.90;;;;;;10394009;28;20269;-88
2023/01/18 08:04:56;;;;;;;20.83;15.33;;;2.80;99.90;;;;;;10418723;28;20260;-88
2023/01/18 08:09:58;;;;;;;24.23;15.97;;;2.80;99.90;;;;;;10413791;28;20234;-87
2023/01/18 08:15:01;;;;;;;22.73;14.27;;;2.90;99.90;;;;;;10412523;28;20657;-88
2023/01/18 08:20:04;;;;;;;25.07;16.37;;;2.90;99.90;;;;;;10410437;28;20300;-87
2023/01/18 08:25:08;;;;;;;22.17;15.53;;;2.90;99.90;;;;;;10402866;28;20249;-88
2023/01/18 08:30:11;;;;;;;28.40;16.97;;;2.90;99.90;;;;;;10434973;28;20244;-87
2023/01/18 08:47:23;;;;;;;28.13;17.57;;;4.00;99.90;;;;;;9670353;28;10002391;-91
2023/01/18 08:52:36;;;;;;;25.80;15.33;;;3.20;99.90;;;;;;10329979;28;20205;-89
2023/01/18 08:57:39;;;;;;;24.43;16.10;;;3.60;99.90;;;;;;10350670;28;20337;-89
2023/01/18 09:02:42;;;;;;;24.30;15.97;;;3.60;99.90;;;;;;10358032;28;20334;-89
2023/01/18 09:07:46;;;;;;;20.97;15.00;;;4.10;99.90;;;;;;10347815;28;20239;-90
2023/01/18 09:12:49;;;;;;;21.13;14.57;;;4.00;99.90;;;;;;10325157;28;20235;-90
2023/01/18 09:17:54;;;;;;;19.93;13.93;;;4.10;99.90;;;;;;10370523;28;20341;-89
2023/01/18 09:23:08;;;;;;;21.17;14.07;;;4.50;99.90;;;;;;10366526;28;20228;-89
2023/01/18 09:28:12;;;;;;;18.90;14.53;;;4.60;99.90;;;;;;10355250;28;20240;-87
2023/01/18 09:33:41;;;;;;;19.00;12.50;;;4.60;99.90;;;;;;10377316;28;20224;-95
2023/01/18 09:39:04;;;;;;;19.20;12.40;;;4.50;99.90;;;;;;10323168;28;20223;-93
2023/01/18 09:44:17;;;;;;;29.90;16.03;;;4.30;99.90;;;;;;10373076;28;20257;-92
2023/01/18 09:49:54;;;;;;;25.07;16.20;;;4.80;99.90;;;;;;10359236;28;20207;-91
2023/01/18 09:55:15;;;;;;;25.30;15.00;;;5.10;99.90;;;;;;10330800;28;20252;-92
2023/01/18 10:00:44;;;;;;;23.90;13.30;;;5.20;99.90;;;;;;10350426;28;20261;-94
2023/01/18 10:06:24;;;;;;;33.13;21.60;;;5.50;99.90;;;;;;10349137;28;20211;-92
2023/01/18 10:11:54;;;;;;;19.53;13.77;;;5.40;99.90;;;;;;10331043;28;20247;-95
2023/01/18 10:17:02;;;;;;;17.57;12.17;;;4.90;99.90;;;;;;10340937;28;20217;-91
2023/01/18 10:22:35;;;;;;;15.20;11.30;;;4.60;99.90;;;;;;10364872;28;20212;-90
2023/01/18 10:28:08;;;;;;;22.43;13.90;;;4.70;99.90;;;;;;10329502;28;20233;-90
2023/01/18 10:33:31;;;;;;;29.80;17.27;;;4.60;99.90;;;;;;10345887;28;20200;-94
2023/01/18 10:38:34;;;;;;;25.80;15.73;;;4.70;99.90;;;;;;10340258;28;20205;-92
2023/01/18 10:43:37;;;;;;;20.30;13.47;;;4.50;99.90;;;;;;10325703;28;20236;-91
2023/01/18 10:48:52;;;;;;;20.90;12.37;;;4.60;99.90;;;;;;10380743;28;20200;-92
2023/01/18 10:53:57;;;;;;;24.57;14.47;;;4.70;99.90;;;;;;10377517;28;20223;-92
2023/01/18 10:59:25;;;;;;;22.57;15.03;;;4.60;99.90;;;;;;10361537;28;20204;-93
2023/01/18 11:04:30;;;;;;;23.33;14.90;;;4.40;99.90;;;;;;10377555;23;20249;-83
2023/01/18 11:09:54;;;;;;;26.93;16.47;;;4.40;99.90;;;;;;10409880;28;20223;-83
2023/01/18 11:15:05;;;;;;;20.83;14.97;;;4.30;99.90;;;;;;10431286;28;20785;-84
2023/01/18 11:20:18;;;;;;;28.77;16.03;;;4.50;99.90;;;;;;10411793;28;20235;-80
2023/01/18 11:25:21;;;;;;;38.07;23.47;;;4.90;99.90;;;;;;10441891;28;20226;-80
2023/01/18 11:30:26;;;;;;;34.13;20.80;;;5.50;99.90;;;;;;10453077;28;20265;-80
2023/01/18 11:35:35;;;;;;;28.27;16.37;;;5.80;99.90;;;;;;10443985;28;20306;-80
2023/01/18 11:40:37;;;;;;;34.87;25.43;;;5.60;99.90;;;;;;10424398;28;20223;-82
2023/01/18 11:45:49;;;;;;;32.13;21.63;;;5.30;99.90;;;;;;10429316;28;20767;-84
2023/01/18 11:50:56;;;;;;;39.23;29.10;;;;;;;;;;10437199;28;20231;-83
2023/01/18 11:56:25;;;;;;;24.50;15.57;;;2.90;99.90;;;;;;10398541;28;20256;-83
2023/01/18 12:01:55;;;;;;;33.53;20.43;;;4.10;99.90;;;;;;10385090;28;20648;-83
2023/01/18 12:07:12;;;;;;;36.37;22.97;;;4.00;99.90;;;;;;10370085;28;20329;-83
2023/01/18 12:12:21;;;;;;;26.67;16.13;;;3.50;99.90;;;;;;10405695;28;20274;-83
2023/01/18 12:17:54;;;;;;;51.47;28.87;;;5.50;99.90;;;;;;10409528;28;20734;-81
2023/01/18 12:23:14;;;;;;;46.40;28.77;;;;;;;;;;10427499;28;20672;-82
2023/01/18 12:28:41;;;;;;;42.87;26.73;;;3.60;99.90;;;;;;10439158;28;20259;-82
2023/01/18 12:33:52;;;;;;;43.23;24.37;;;;;;;;;;10415115;28;20239;-81
2023/01/18 12:38:55;;;;;;;33.60;22.23;;;2.50;99.90;;;;;;10417381;28;20682;-81
2023/01/18 12:44:15;;;;;;;30.37;20.77;;;2.80;99.90;;;;;;10411567;28;20223;-82
2023/01/18 12:49:20;;;;;;;29.83;19.63;;;3.00;99.90;;;;;;10408290;28;20223;-83
2023/01/18 12:54:31;;;;;;;30.57;18.93;;;3.30;99.90;;;;;;10431136;28;20315;-81
2023/01/18 12:59:44;;;;;;;24.80;17.70;;;3.30;99.90;;;;;;10409019;28;20237;-82
2023/01/18 13:04:58;;;;;;;26.40;17.87;;;3.50;99.90;;;;;;10415362;28;20288;-81
2023/01/18 13:10:02;;;;;;;29.50;18.67;;;3.60;99.90;;;;;;10448581;28;20642;-81
2023/01/18 13:15:29;;;;;;;33.07;18.53;;;3.70;99.90;;;;;;10455918;23;20721;-83
2023/01/18 13:20:50;;;;;;;26.97;18.10;;;3.30;99.90;;;;;;10464544;28;20634;-83
2023/01/18 13:26:24;;;;;;;30.23;20.13;;;3.60;99.90;;;;;;10435892;28;20298;-83
2023/01/18 13:31:30;;;;;;;31.20;21.00;;;3.80;99.90;;;;;;10459703;28;20265;-83
2023/01/18 13:36:45;;;;;;;22.80;17.57;;;3.90;99.90;;;;;;10446203;28;20250;-83
2023/01/18 13:42:03;;;;;;;31.20;20.07;;;4.00;99.90;;;;;;10373004;28;20243;-82
2023/01/18 13:47:38;;;;;;;26.27;19.37;;;3.50;99.90;;;;;;10396227;28;20238;-82
2023/01/18 13:52:42;;;;;;;30.93;20.57;;;3.20;99.90;;;;;;10456218;28;20308;-82
2023/01/18 13:57:53;;;;;;;31.60;21.33;;;2.90;99.90;;;;;;10488127;28;20288;-82
2023/01/18 14:03:05;;;;;;;33.57;21.17;;;2.80;99.90;;;;;;10487323;28;20235;-82
2023/01/18 14:08:30;;;;;;;28.63;19.10;;;2.90;99.90;;;;;;10468526;28;20778;-82
2023/01/18 14:13:44;;;;;;;30.90;19.43;;;3.30;99.90;;;;;;10487888;28;20265;-82
2023/01/18 14:19:15;;;;;;;28.10;18.87;;;3.30;99.90;;;;;;10471038;28;20261;-82
2023/01/18 14:24:53;;;;;;;32.63;22.50;;;3.50;99.90;;;;;;10488377;28;20234;-83
2023/01/18 14:30:16;;;;;;;42.83;23.83;;;3.30;99.90;;;;;;10247729;28;20720;-82
2023/01/18 14:35:21;;;;;;;36.73;22.47;;;4.00;99.90;;;;;;10241252;28;20318;-83
2023/01/18 14:40:27;;;;;;;35.40;22.10;;;4.10;99.90;;;;;;10270495;28;20238;-83
2023/01/18 14:45:31;;;;;;;92.77;56.70;;;4.20;99.90;;;;;;10284133;28;20252;-82
2023/01/18 14:50:40;;;;;;;85.97;38.33;;;4.20;99.90;;;;;;10256335;28;20238;-83
2023/01/18 14:55:59;;;;;;;47.97;27.03;;;4.10;99.90;;;;;;10246111;29;20729;-83
2023/01/18 15:01:02;;;;;;;28.77;20.87;;;4.40;99.90;;;;;;10245757;29;20230;-82
2023/01/18 15:06:11;;;;;;;42.00;24.13;;;5.10;99.90;;;;;;10377692;28;20278;-82
2023/01/18 15:11:14;;;;;;;31.73;18.70;;;6.00;99.90;;;;;;10477389;28;20234;-82
2023/01/18 15:16:20;;;;;;;33.67;22.67;;;6.40;99.90;;;;;;10455063;28;20324;-82
2023/01/18 15:21:28;;;;;;;32.73;22.47;;;6.20;99.90;;;;;;10436219;28;20222;-82
2023/01/18 15:26:54;;;;;;;37.47;22.17;;;5.50;99.90;;;;;;10473478;28;20620;-83
2023/01/18 15:32:03;;;;;;;36.23;21.13;;;5.20;99.90;;;;;;10453135;28;20238;-83
2023/01/18 15:37:11;;;;;;;37.70;22.83;;;5.90;99.90;;;;;;10467046;28;20261;-83
2023/01/18 15:42:16;;;;;;;46.80;30.73;;;5.90;99.90;;;;;;10493907;28;20222;-83
2023/01/18 15:47:23;;;;;;;50.87;32.07;;;5.10;99.90;;;;;;9761112;28;10000322;-83
2023/01/18 15:52:42;;;;;;;58.93;32.17;;;4.30;99.90;;;;;;10471356;28;21021;-82
2023/01/18 15:58:03;;;;;;;32.60;20.80;;;4.00;99.90;;;;;;10429480;28;20253;-82
2023/01/18 16:03:24;;;;;;;47.73;30.27;;;4.80;99.90;;;;;;10447890;28;20800;-83
2023/01/18 16:08:27;;;;;;;39.83;24.47;;;5.20;99.90;;;;;;10450419;28;20225;-83
2023/01/18 16:13:38;;;;;;;43.17;26.47;;;4.90;99.90;;;;;;10474304;28;20299;-82
2023/01/18 16:18:59;;;;;;;36.13;23.30;;;4.80;99.90;;;;;;10463063;28;20316;-83
2023/01/18 16:24:01;;;;;;;41.73;26.33;;;5.50;99.90;;;;;;10473327;28;20275;-83
2023/01/18 16:29:06;;;;;;;48.60;28.13;;;6.50;99.90;;;;;;10432187;28;20293;-82
2023/01/18 16:34:24;;;;;;;36.93;23.43;;;6.50;99.90;;;;;;10459284;28;20234;-83
2023/01/18 16:39:27;;;;;;;45.20;27.50;;;6.90;99.90;;;;;;10450303;28;20304;-83
2023/01/18 16:44:30;;;;;;;48.63;31.20;;;6.70;99.90;;;;;;10461684;28;20230;-83
2023/01/18 16:49:33;;;;;;;43.83;25.27;;;6.40;99.90;;;;;;10467583;28;20237;-83
2023/01/18 16:54:35;;;;;;;42.50;25.47;;;6.80;99.90;;;;;;10468939;28;20230;-83
2023/01/18 16:59:38;;;;;;;55.83;32.70;;;7.00;99.90;;;;;;10489042;28;20299;-83
2023/01/18 17:04:41;;;;;;;61.03;35.17;;;6.80;99.90;;;;;;10445198;28;20604;-82
2023/01/18 17:09:45;;;;;;;58.20;37.50;;;6.10;99.90;;;;;;10469463;28;20643;-83
2023/01/18 17:14:51;;;;;;;65.50;40.07;;;5.50;99.90;;;;;;10451618;28;20312;-82
2023/01/18 17:19:54;;;;;;;66.37;39.37;;;5.60;99.90;;;;;;10449066;28;20292;-83
2023/01/18 17:24:57;;;;;;;79.50;45.03;;;4.80;99.90;;;;;;10445933;28;20711;-82
2023/01/18 17:30:00;;;;;;;69.03;41.63;;;3.90;99.90;;;;;;10478748;28;20295;-83
2023/01/18 17:35:04;;;;;;;69.97;41.83;;;4.00;99.90;;;;;;10435902;28;20222;-83
2023/01/18 17:40:08;;;;;;;65.23;38.40;;;3.40;99.90;;;;;;10471033;28;20234;-82
2023/01/18 17:45:21;;;;;;;69.30;42.60;;;3.90;99.90;;;;;;10462617;28;20303;-83
2023/01/18 17:50:24;;;;;;;70.17;40.17;;;3.30;99.90;;;;;;10434934;28;20652;-83
2023/01/18 17:55:26;;;;;;;87.53;49.50;;;3.50;99.90;;;;;;10479179;28;20257;-83
2023/01/18 18:00:36;;;;;;;96.53;55.47;;;3.80;99.90;;;;;;10469423;28;20644;-83
2023/01/18 18:05:39;;;;;;;88.07;50.93;;;4.90;99.90;;;;;;10458275;28;20230;-83
2023/01/18 18:10:42;;;;;;;87.40;50.57;;;4.40;99.90;;;;;;10469320;28;20237;-83
2023/01/18 18:15:47;;;;;;;63.57;41.03;;;4.40;99.90;;;;;;10457706;28;20669;-82
2023/01/18 18:20:59;;;;;;;69.43;39.80;;;4.80;99.90;;;;;;10482287;28;20225;-83
2023/01/18 18:26:03;;;;;;;69.57;42.70;;;5.20;99.90;;;;;;10491750;28;20234;-83
2023/01/18 18:31:11;;;;;;;58.53;37.73;;;5.00;99.90;;;;;;10454706;28;20607;-83
2023/01/18 18:36:14;;;;;;;58.23;35.77;;;5.60;99.90;;;;;;10464914;28;20653;-83
2023/01/18 18:41:17;;;;;;;56.30;33.73;;;6.60;99.90;;;;;;10446562;28;20231;-83
2023/01/18 18:46:20;;;;;;;54.27;33.50;;;6.50;99.90;;;;;;10437760;28;20242;-83
2023/01/18 18:51:25;;;;;;;51.70;32.20;;;7.10;99.90;;;;;;10454863;28;20638;-84
2023/01/18 18:56:28;;;;;;;66.07;41.13;;;7.30;99.90;;;;;;10477395;28;20262;-84
2023/01/18 19:01:30;;;;;;;62.30;39.17;;;6.70;99.90;;;;;;10470420;28;20653;-84
2023/01/18 19:06:34;;;;;;;64.87;39.10;;;5.40;99.90;;;;;;10453137;28;20709;-84
2023/01/18 19:11:36;;;;;;;65.17;37.83;;;4.00;99.90;;;;;;10451116;28;20226;-83
2023/01/18 19:16:48;;;;;;;61.50;36.57;;;3.30;99.90;;;;;;10434499;28;20335;-83
2023/01/18 19:21:51;;;;;;;68.77;37.33;;;3.00;99.90;;;;;;10450301;28;20281;-83
2023/01/18 19:26:54;;;;;;;59.80;35.20;;;2.90;99.90;;;;;;10428326;28;20745;-83
2023/01/18 19:31:57;;;;;;;59.43;39.93;;;2.90;99.90;;;;;;10445626;28;20238;-83
2023/01/18 19:36:59;;;;;;;64.53;36.43;;;3.40;99.90;;;;;;10434092;28;20254;-84
2023/01/18 19:42:03;;;;;;;61.90;38.50;;;3.50;99.90;;;;;;10458811;28;20236;-83
2023/01/18 19:47:06;;;;;;;76.13;42.87;;;3.40;99.90;;;;;;10459331;28;20771;-84
2023/01/18 19:52:09;;;;;;;72.53;45.33;;;3.60;99.90;;;;;;10431077;28;20242;-84
2023/01/18 19:57:11;;;;;;;67.77;40.10;;;4.30;99.90;;;;;;10111506;28;9999878;-83
2023/01/18 20:02:14;;;;;;;79.60;46.03;;;3.80;99.90;;;;;;10472814;28;20237;-81
2023/01/18 20:07:17;;;;;;;68.50;43.93;;;4.10;99.90;;;;;;10473171;28;20383;-81
2023/01/18 20:12:20;;;;;;;69.53;42.27;;;4.40;99.90;;;;;;10440913;28;20234;-81
2023/01/18 20:17:23;;;;;;;65.33;42.80;;;4.50;99.90;;;;;;10466270;28;20313;-83
2023/01/18 20:22:26;;;;;;;56.50;38.80;;;3.60;99.90;;;;;;10451476;28;20253;-81
2023/01/18 20:27:29;;;;;;;58.27;37.10;;;3.70;99.90;;;;;;10447062;28;20238;-82
2023/01/18 20:32:32;;;;;;;55.03;36.50;;;3.40;99.90;;;;;;10449299;28;20280;-82
2023/01/18 20:37:35;;;;;;;65.40;38.27;;;3.20;99.90;;;;;;10448500;28;20308;-82
2023/01/18 20:42:38;;;;;;;65.13;39.63;;;3.00;99.90;;;;;;10446617;28;20284;-82
2023/01/18 20:47:41;;;;;;;68.73;40.97;;;3.50;99.90;;;;;;10432689;28;20296;-81
2023/01/18 20:52:45;;;;;;;65.33;38.63;;;3.20;99.90;;;;;;10435691;28;20234;-81
2023/01/18 20:57:50;;;;;;;68.70;41.23;;;3.20;99.90;;;;;;10461212;28;20300;-82
2023/01/18 21:02:53;;;;;;;64.50;37.27;;;3.00;99.90;;;;;;10446361;28;20648;-81
2023/01/18 21:07:57;;;;;;;79.77;43.03;;;3.10;99.90;;;;;;10438418;28;20230;-82
2023/01/18 21:13:00;;;;;;;77.53;42.40;;;3.50;99.90;;;;;;10455723;28;20226;-83
2023/01/18 21:18:05;;;;;;;78.00;40.93;;;3.00;99.90;;;;;;10446596;28;20266;-83
2023/01/18 21:23:11;;;;;;;76.07;43.53;;;3.90;99.90;;;;;;10448541;28;20203;-83
2023/01/18 21:28:14;;;;;;;76.03;41.77;;;4.60;99.90;;;;;;10452890;28;20238;-83
2023/01/18 21:33:17;;;;;;;80.37;45.43;;;4.80;99.90;;;;;;10445804;28;20242;-83
2023/01/18 21:38:25;;;;;;;78.33;43.60;;;3.90;99.90;;;;;;10446917;28;20717;-83
2023/01/18 21:48:49;;;;;;;93.33;48.53;;;2.90;99.90;;;;;;10449537;28;20246;-83
2023/01/18 21:59:13;;;;;;;75.43;40.47;;;3.00;99.90;;;;;;10447040;28;20249;-82
2023/01/18 22:09:38;;;;;;;55.63;30.57;;;3.20;99.90;;;;;;10445774;28;20230;-82
2023/01/18 22:14:40;;;;;;;52.30;32.23;;;3.90;99.90;;;;;;10445384;28;20265;-83
2023/01/18 22:19:43;;;;;;;112.07;63.83;;;6.00;99.90;;;;;;10445755;28;20266;-83
2023/01/18 22:24:46;;;;;;;79.13;42.00;;;5.90;99.90;;;;;;10442206;28;20308;-83
2023/01/18 22:29:48;;;;;;;77.30;43.67;;;5.90;99.90;;;;;;10439717;28;20230;-83
2023/01/18 22:34:51;;;;;;;88.90;51.20;;;5.80;99.90;;;;;;10445091;28;20683;-83
2023/01/18 22:39:53;;;;;;;85.80;44.83;;;4.20;99.90;;;;;;10452373;28;20663;-83
2023/01/18 22:44:56;;;;;;;86.53;49.53;;;4.30;99.90;;;;;;10446304;28;20302;-83
2023/01/18 22:49:58;;;;;;;83.37;48.97;;;4.10;99.90;;;;;;10446533;28;20955;-82
2023/01/18 22:55:01;;;;;;;82.27;49.37;;;3.80;99.90;;;;;;10454975;28;20281;-82
2023/01/18 23:00:05;;;;;;;74.40;46.30;;;3.30;99.90;;;;;;10446416;28;20267;-82
2023/01/18 23:05:08;;;;;;;76.60;45.40;;;2.90;99.90;;;;;;10447709;28;20235;-82
2023/01/18 23:10:11;;;;;;;69.27;41.57;;;3.20;99.90;;;;;;10463146;28;20248;-82
2023/01/18 23:20:35;;;;;;;72.07;47.80;;;2.80;99.90;;;;;;10469301;28;20249;-82
2023/01/18 23:25:38;;;;;;;69.60;42.93;;;2.70;99.90;;;;;;10469116;28;20238;-82
2023/01/18 23:30:41;;;;;;;69.33;42.30;;;2.60;99.90;;;;;;10439040;28;20256;-82
2023/01/18 23:35:43;;;;;;;69.90;39.47;;;2.80;99.90;;;;;;10454487;28;20626;-82
2023/01/18 23:56:49;;;;;;;56.07;33.73;;;2.60;99.90;;;;;;10430141;28;20296;-82
